Time;durP1;ratioP1;P1;durP2;ratioP2;P2;SDS_P1;SDS_P2;PMS_P1;PMS_P2;Temp;Humidity;BMP_temperature;BMP_pressure;BME280_temperature;BME280_humidity;BME280_pressure;Samples;Min_cycle;Max_cycle;Signal;HPM_P1;HPM_P2
2023/07/20 00:01:57;;;;;;;2.03;1.10;;;22.40;69.00;;;;;;5036160;28;20028;-78
2023/07/20 00:04:22;;;;;;;2.45;0.90;;;22.30;69.70;;;;;;5036286;28;20242;-78
2023/07/20 00:06:48;;;;;;;2.22;0.57;;;22.20;70.00;;;;;;5035577;28;20386;-76
2023/07/20 00:09:13;;;;;;;2.33;0.95;;;22.20;70.00;;;;;;5032995;28;20029;-77
2023/07/20 00:11:39;;;;;;;3.22;1.08;;;22.20;70.10;;;;;;5050304;28;20059;-78
2023/07/20 00:14:06;;;;;;;2.95;1.02;;;22.10;70.10;;;;;;5036320;28;20021;-80
2023/07/20 00:16:32;;;;;;;1.70;1.00;;;22.10;70.50;;;;;;5053495;28;20491;-76
2023/07/20 00:18:58;;;;;;;3.78;1.15;;;22.00;70.40;;;;;;5052848;28;20048;-77
2023/07/20 00:21:23;;;;;;;2.95;0.82;;;22.10;70.50;;;;;;5052941;28;20394;-78
2023/07/20 00:23:49;;;;;;;3.30;1.08;;;22.00;71.20;;;;;;5035100;28;20091;-77
2023/07/20 00:26:14;;;;;;;2.72;0.90;;;21.90;70.80;;;;;;5035419;28;20119;-76
2023/07/20 00:28:40;;;;;;;5.38;1.48;;;21.90;71.00;;;;;;5034776;28;20036;-75
2023/07/20 00:31:06;;;;;;;1.92;0.80;;;21.80;71.10;;;;;;5035386;28;20025;-77
2023/07/20 00:33:31;;;;;;;2.08;0.90;;;21.80;71.30;;;;;;5053126;28;20029;-77
2023/07/20 00:35:57;;;;;;;3.17;0.77;;;21.70;71.50;;;;;;5036779;28;20031;-77
2023/07/20 00:38:22;;;;;;;2.10;0.95;;;21.70;71.60;;;;;;5035551;28;20029;-78
2023/07/20 00:40:49;;;;;;;2.83;0.98;;;21.70;71.80;;;;;;5035272;28;20461;-77
2023/07/20 00:43:15;;;;;;;1.98;0.80;;;21.60;72.10;;;;;;5052754;28;20025;-77
2023/07/20 00:45:41;;;;;;;2.80;1.00;;;21.60;72.30;;;;;;5034170;28;20500;-78
2023/07/20 00:48:07;;;;;;;3.55;0.80;;;21.60;72.50;;;;;;5052960;28;20036;-77
2023/07/20 00:50:34;;;;;;;1.58;1.05;;;21.60;72.80;;;;;;5052857;28;20029;-77
2023/07/20 00:53:01;;;;;;;1.88;0.90;;;21.50;73.00;;;;;;5034765;28;20036;-77
2023/07/20 00:55:28;;;;;;;3.28;1.13;;;21.40;73.40;;;;;;5034904;28;20031;-77
2023/07/20 00:57:53;;;;;;;4.10;0.80;;;21.20;73.50;;;;;;5052734;28;20075;-77
2023/07/20 01:00:19;;;;;;;1.80;1.00;;;21.20;73.90;;;;;;5053139;28;20033;-77
2023/07/20 01:02:46;;;;;;;2.85;0.90;;;21.10;74.10;;;;;;5034707;28;20075;-77
2023/07/20 01:05:13;;;;;;;1.92;0.90;;;21.10;74.40;;;;;;5034756;28;20057;-77
2023/07/20 01:07:59;;;;;;;1.92;0.75;;;21.10;74.40;;;;;;5052664;28;20025;-77
2023/07/20 01:10:43;;;;;;;1.70;0.90;;;21.10;74.40;;;;;;5054996;28;20486;-77
2023/07/20 01:13:10;;;;;;;2.50;0.93;;;21.10;74.60;;;;;;5052908;28;20028;-77
2023/07/20 01:15:36;;;;;;;4.00;0.95;;;21.10;74.50;;;;;;5034990;28;20049;-77
2023/07/20 01:18:04;;;;;;;2.45;0.90;;;21.10;74.50;;;;;;5035211;28;20126;-77
2023/07/20 01:20:32;;;;;;;2.58;1.05;;;21.10;74.60;;;;;;5035254;28;20413;-76
2023/07/20 01:23:20;;;;;;;2.13;1.08;;;21.10;74.80;;;;;;5034803;28;20021;-77
2023/07/20 01:26:02;;;;;;;2.20;1.00;;;21.10;75.00;;;;;;5034424;28;20382;-77
2023/07/20 01:28:27;;;;;;;2.42;1.00;;;21.00;75.10;;;;;;5052821;28;20035;-77
2023/07/20 01:31:11;;;;;;;2.53;1.10;;;21.00;75.10;;;;;;5034296;28;20029;-77
2023/07/20 01:33:38;;;;;;;2.22;1.40;;;20.90;75.50;;;;;;5052032;28;20109;-77
2023/07/20 01:36:05;;;;;;;1.85;0.98;;;20.80;75.90;;;;;;5022876;28;20034;-77
2023/07/20 01:38:30;;;;;;;1.73;1.10;;;20.80;76.30;;;;;;5031413;28;20033;-77
2023/07/20 01:40:57;;;;;;;3.45;1.10;;;20.70;76.40;;;;;;5033870;28;20565;-77
2023/07/20 01:43:23;;;;;;;3.88;1.27;;;20.70;76.70;;;;;;5035202;28;20099;-77
2023/07/20 01:45:49;;;;;;;2.03;1.30;;;20.60;76.90;;;;;;5052392;28;20508;-77
2023/07/20 01:48:14;;;;;;;6.85;1.30;;;20.60;77.10;;;;;;5052728;28;20488;-76
2023/07/20 01:50:40;;;;;;;4.38;1.20;;;20.60;77.20;;;;;;5034748;28;20033;-78
2023/07/20 01:53:06;;;;;;;3.70;1.00;;;20.60;77.50;;;;;;5052224;28;20025;-77
2023/07/20 01:55:31;;;;;;;3.15;1.08;;;20.60;77.80;;;;;;5054229;28;20030;-77
2023/07/20 01:57:59;;;;;;;2.80;1.15;;;20.50;78.00;;;;;;5037938;28;20049;-77
2023/07/20 02:00:25;;;;;;;3.00;0.98;;;20.50;78.20;;;;;;5038740;28;20029;-78
2023/07/20 02:02:51;;;;;;;1.65;0.93;;;20.40;78.60;;;;;;5055838;28;20374;-77
2023/07/20 02:05:17;;;;;;;3.88;1.30;;;20.30;79.00;;;;;;5038460;28;20397;-76
2023/07/20 02:07:43;;;;;;;2.35;1.20;;;20.30;79.40;;;;;;5037425;28;20139;-77
2023/07/20 02:10:09;;;;;;;2.63;1.33;;;20.20;79.60;;;;;;5038181;28;20481;-76
2023/07/20 02:12:34;;;;;;;5.13;1.50;;;20.20;80.00;;;;;;5038022;28;20028;-76
2023/07/20 02:15:02;;;;;;;4.85;1.33;;;20.10;80.30;;;;;;5055383;28;20021;-76
2023/07/20 02:17:27;;;;;;;3.10;1.20;;;20.00;80.70;;;;;;5055560;28;20094;-76
2023/07/20 02:19:54;;;;;;;3.78;1.35;;;20.00;81.00;;;;;;5037903;28;20470;-76
2023/07/20 02:22:20;;;;;;;3.58;1.35;;;20.00;81.40;;;;;;5056094;28;20021;-76
2023/07/20 02:24:46;;;;;;;5.80;1.50;;;20.00;81.70;;;;;;5037853;28;20032;-77
2023/07/20 02:27:12;;;;;;;2.05;1.05;;;19.90;82.10;;;;;;5038316;28;20032;-76
2023/07/20 02:29:37;;;;;;;2.13;1.30;;;19.80;82.50;;;;;;5055288;28;20347;-77
2023/07/20 02:32:03;;;;;;;5.18;1.30;;;19.80;82.80;;;;;;5054408;28;20057;-77
2023/07/20 02:34:29;;;;;;;2.35;1.40;;;19.90;83.00;;;;;;5054735;28;20032;-77
2023/07/20 02:37:00;;;;;;;2.20;1.30;;;19.80;83.20;;;;;;5074340;28;20453;-77
2023/07/20 02:39:27;;;;;;;2.22;1.30;;;19.80;83.30;;;;;;5058589;28;20483;-77
2023/07/20 02:41:52;;;;;;;2.28;1.48;;;19.70;83.50;;;;;;5074144;28;20043;-77
2023/07/20 02:44:18;;;;;;;3.75;1.30;;;19.60;83.80;;;;;;5058369;28;20024;-77
2023/07/20 02:46:44;;;;;;;3.90;1.88;;;19.60;84.10;;;;;;5057758;28;20124;-77
2023/07/20 02:49:09;;;;;;;3.38;1.48;;;19.60;84.50;;;;;;5058108;28;20384;-77
2023/07/20 02:51:35;;;;;;;3.40;1.40;;;19.60;84.70;;;;;;5057964;28;20070;-77
2023/07/20 02:54:01;;;;;;;2.22;1.58;;;19.50;84.50;;;;;;5075503;28;20780;-77
2023/07/20 02:56:26;;;;;;;2.88;1.48;;;19.50;84.60;;;;;;5057979;28;20475;-77
2023/07/20 02:58:52;;;;;;;2.10;1.50;;;19.40;84.80;;;;;;5057700;28;20032;-77
2023/07/20 03:01:18;;;;;;;4.38;1.50;;;19.40;85.10;;;;;;5057568;28;20024;-77
2023/07/20 03:03:47;;;;;;;4.60;1.52;;;19.40;85.20;;;;;;5057080;28;20082;-77
2023/07/20 03:06:16;;;;;;;5.68;1.40;;;19.40;85.20;;;;;;5057337;28;20052;-77
2023/07/20 03:08:47;;;;;;;2.35;1.50;;;19.50;84.90;;;;;;5056677;28;20037;-77
2023/07/20 03:11:14;;;;;;;5.70;1.50;;;19.50;84.80;;;;;;5057603;28;20027;-77
2023/07/20 03:13:39;;;;;;;3.53;1.48;;;19.50;84.80;;;;;;5057608;28;20527;-77
2023/07/20 03:16:05;;;;;;;3.95;1.60;;;19.50;85.20;;;;;;5074743;28;20021;-77
2023/07/20 03:18:30;;;;;;;3.45;1.63;;;19.50;85.10;;;;;;5057441;28;20131;-77
2023/07/20 03:20:56;;;;;;;4.03;1.50;;;19.50;85.20;;;;;;5056808;28;20039;-76
2023/07/20 03:23:22;;;;;;;5.88;2.08;;;19.50;85.30;;;;;;5057183;28;20071;-76
2023/07/20 03:25:48;;;;;;;3.15;1.63;;;19.50;85.30;;;;;;5056481;28;20052;-77
2023/07/20 03:28:13;;;;;;;1.95;1.30;;;19.50;85.60;;;;;;5075151;28;20453;-76
2023/07/20 03:30:39;;;;;;;5.22;1.85;;;19.50;85.80;;;;;;5074864;28;20100;-76
2023/07/20 03:33:04;;;;;;;8.98;1.95;;;19.50;86.00;;;;;;5074488;28;20036;-77
2023/07/20 03:35:31;;;;;;;3.92;1.65;;;19.40;86.10;;;;;;5074753;28;20043;-76
2023/07/20 03:37:57;;;;;;;2.85;1.52;;;19.40;86.30;;;;;;5056256;28;20070;-77
2023/07/20 03:40:22;;;;;;;3.50;1.65;;;19.40;86.50;;;;;;5057031;28;20353;-76
2023/07/20 03:42:48;;;;;;;3.53;1.80;;;19.40;86.50;;;;;;5074131;28;20032;-78
2023/07/20 03:45:14;;;;;;;6.53;2.05;;;19.40;86.50;;;;;;5074669;28;20029;-76
2023/07/20 03:47:39;;;;;;;2.63;2.05;;;19.40;87.00;;;;;;5074695;28;20024;-76
2023/07/20 03:50:06;;;;;;;3.83;1.58;;;19.40;87.20;;;;;;5073945;28;20016;-76
2023/07/20 03:52:32;;;;;;;5.40;1.58;;;19.30;87.10;;;;;;5074286;28;20017;-76
2023/07/20 03:54:57;;;;;;;3.70;2.03;;;19.30;87.30;;;;;;5073534;28;20031;-76
2023/07/20 03:57:23;;;;;;;4.15;1.48;;;19.40;87.40;;;;;;5074159;28;20054;-76
2023/07/20 03:59:48;;;;;;;4.55;1.55;;;19.40;87.60;;;;;;5073865;28;20028;-78
2023/07/20 04:02:14;;;;;;;4.25;1.63;;;19.40;87.70;;;;;;5056388;28;20032;-76
2023/07/20 04:04:40;;;;;;;5.22;1.67;;;19.40;87.80;;;;;;5055820;28;20036;-76
2023/07/20 04:07:07;;;;;;;4.05;1.70;;;19.40;87.90;;;;;;5055161;28;20033;-76
2023/07/20 04:09:33;;;;;;;2.47;1.70;;;19.40;88.00;;;;;;5056010;28;20028;-76
2023/07/20 04:11:58;;;;;;;3.88;1.70;;;19.40;88.20;;;;;;5073483;28;20119;-76
2023/07/20 04:14:24;;;;;;;4.22;1.60;;;19.40;88.10;;;;;;5056281;28;20496;-76
2023/07/20 04:16:51;;;;;;;3.88;1.60;;;19.40;88.10;;;;;;5073500;28;20032;-77
2023/07/20 04:19:17;;;;;;;3.40;1.40;;;19.40;88.30;;;;;;5073686;28;20025;-76
2023/07/20 04:21:43;;;;;;;3.72;1.30;;;19.40;88.40;;;;;;5073852;28;20032;-76
2023/07/20 04:24:09;;;;;;;4.57;1.70;;;19.50;88.40;;;;;;5073426;28;20055;-76
2023/07/20 04:26:35;;;;;;;3.47;1.50;;;19.40;88.70;;;;;;5056173;28;20439;-76
2023/07/20 04:29:01;;;;;;;2.88;1.65;;;19.40;89.00;;;;;;5055246;28;20392;-76
2023/07/20 04:31:26;;;;;;;4.38;1.63;;;19.40;89.20;;;;;;5073589;28;20479;-76
2023/07/20 04:33:52;;;;;;;5.97;1.90;;;19.40;89.30;;;;;;5055043;28;20031;-77
2023/07/20 04:36:19;;;;;;;2.92;1.45;;;19.40;89.70;;;;;;5073328;28;20112;-76
2023/07/20 04:38:45;;;;;;;4.07;1.80;;;19.40;89.90;;;;;;5073113;28;20461;-76
2023/07/20 04:41:14;;;;;;;3.38;1.60;;;19.40;90.00;;;;;;5054570;28;20667;-77
2023/07/20 04:43:43;;;;;;;6.15;1.70;;;19.40;90.10;;;;;;5073161;28;20428;-77
2023/07/20 04:46:10;;;;;;;2.13;1.52;;;19.30;90.20;;;;;;5054655;28;20020;-77
2023/07/20 04:48:35;;;;;;;3.30;1.80;;;19.30;90.30;;;;;;5055469;28;20037;-77
2023/07/20 04:51:01;;;;;;;3.25;1.55;;;19.30;90.30;;;;;;5054763;28;20120;-76
2023/07/20 04:53:26;;;;;;;4.88;2.08;;;19.40;90.60;;;;;;5073311;28;20466;-76
2023/07/20 04:55:54;;;;;;;2.38;1.65;;;19.40;90.60;;;;;;5054890;28;20025;-77
2023/07/20 04:58:21;;;;;;;3.65;2.10;;;19.30;90.70;;;;;;5055313;28;20056;-76
2023/07/20 05:00:48;;;;;;;4.00;1.77;;;19.30;90.80;;;;;;5072037;28;20036;-76
2023/07/20 05:03:13;;;;;;;2.95;1.65;;;19.30;90.90;;;;;;5054794;28;20037;-76
2023/07/20 05:05:39;;;;;;;6.97;2.25;;;19.40;90.90;;;;;;5055035;28;20051;-76
2023/07/20 05:08:05;;;;;;;4.88;1.60;;;19.40;90.80;;;;;;5054695;28;20056;-76
2023/07/20 05:10:30;;;;;;;3.25;1.70;;;19.50;90.90;;;;;;5073095;28;20453;-76
2023/07/20 05:12:56;;;;;;;3.65;1.95;;;19.50;91.00;;;;;;5054550;28;20024;-77
2023/07/20 05:15:21;;;;;;;5.78;2.15;;;19.50;91.10;;;;;;5072848;28;20428;-76
2023/07/20 05:17:48;;;;;;;7.80;2.03;;;19.60;91.00;;;;;;5054679;28;20028;-76
2023/07/20 05:20:14;;;;;;;3.20;1.60;;;19.60;90.90;;;;;;5054394;28;20032;-76
2023/07/20 05:22:40;;;;;;;4.43;1.70;;;19.60;90.90;;;;;;5072922;28;20028;-76
2023/07/20 05:25:10;;;;;;;4.10;2.08;;;19.60;90.80;;;;;;5054410;28;20120;-76
2023/07/20 05:27:40;;;;;;;5.75;1.90;;;19.60;90.80;;;;;;5054821;28;20029;-76
2023/07/20 05:30:07;;;;;;;4.82;1.90;;;19.70;90.80;;;;;;5055276;28;20432;-76
2023/07/20 05:32:33;;;;;;;7.28;2.10;;;19.60;90.90;;;;;;5059075;28;20027;-76
2023/07/20 05:34:58;;;;;;;3.40;2.13;;;19.50;91.10;;;;;;5075497;28;20518;-77
2023/07/20 05:37:24;;;;;;;4.72;2.10;;;19.50;91.20;;;;;;5076911;28;20029;-76
2023/07/20 05:39:50;;;;;;;4.60;2.08;;;19.60;91.20;;;;;;5059132;28;20032;-76
2023/07/20 05:42:15;;;;;;;3.67;1.70;;;19.70;91.20;;;;;;5058236;28;20021;-75
2023/07/20 05:44:41;;;;;;;6.30;1.80;;;19.80;91.10;;;;;;5058854;28;20025;-77
2023/07/20 05:47:07;;;;;;;4.15;1.80;;;19.80;91.30;;;;;;5059880;28;20398;-77
2023/07/20 05:49:34;;;;;;;4.07;1.75;;;19.80;91.10;;;;;;5038299;28;20112;-77
2023/07/20 05:52:00;;;;;;;3.40;1.70;;;19.80;90.90;;;;;;5017950;28;20120;-76
2023/07/20 05:54:27;;;;;;;4.20;1.95;;;19.80;91.00;;;;;;5018841;28;20026;-76
2023/07/20 05:56:53;;;;;;;4.35;1.77;;;19.70;91.00;;;;;;5031909;28;20029;-78
2023/07/20 05:59:23;;;;;;;6.40;2.00;;;19.70;91.20;;;;;;5032678;28;20087;-77
2023/07/20 06:01:49;;;;;;;3.85;1.60;;;19.70;91.30;;;;;;5049431;28;20448;-76
2023/07/20 06:04:15;;;;;;;7.57;2.03;;;19.70;91.20;;;;;;5048325;28;20116;-77
2023/07/20 06:06:41;;;;;;;4.10;1.90;;;19.80;91.20;;;;;;5026410;28;20033;-77
2023/07/20 06:09:09;;;;;;;3.67;1.63;;;19.80;91.20;;;;;;5037900;28;20040;-77
2023/07/20 06:11:36;;;;;;;3.28;1.95;;;19.80;91.30;;;;;;5027869;28;20052;-77
2023/07/20 06:14:01;;;;;;;3.47;1.42;;;19.80;91.40;;;;;;5028874;28;20044;-77
2023/07/20 06:16:27;;;;;;;4.68;1.77;;;19.90;91.30;;;;;;5029969;28;20025;-77
2023/07/20 06:18:52;;;;;;;3.63;1.77;;;19.90;91.40;;;;;;5053951;28;20465;-77
2023/07/20 06:21:18;;;;;;;3.88;1.90;;;19.80;91.60;;;;;;5053553;28;20029;-77
2023/07/20 06:23:44;;;;;;;3.28;1.88;;;19.90;91.60;;;;;;5037921;28;20116;-77
2023/07/20 06:26:09;;;;;;;3.70;1.55;;;19.90;91.60;;;;;;5052830;28;20025;-77
2023/07/20 06:28:36;;;;;;;4.50;1.73;;;20.00;91.60;;;;;;5055771;28;20036;-77
2023/07/20 06:31:02;;;;;;;3.20;1.70;;;20.00;91.50;;;;;;5052577;28;20057;-77
2023/07/20 06:33:28;;;;;;;3.30;1.63;;;20.00;91.60;;;;;;5028764;28;20025;-77
2023/07/20 06:35:53;;;;;;;6.43;1.95;;;20.10;91.70;;;;;;5049249;28;20411;-78
2023/07/20 06:38:19;;;;;;;4.80;1.73;;;20.10;91.70;;;;;;5054262;28;20025;-77
2023/07/20 06:40:51;;;;;;;4.13;1.85;;;20.10;91.70;;;;;;5055476;28;20116;-77
2023/07/20 06:43:16;;;;;;;;;;;20.10;91.70;;;;;;5053228;28;20489;-76
2023/07/20 06:45:42;;;;;;;5.43;1.85;;;20.10;91.80;;;;;;5055487;28;19905;-77
2023/07/20 06:48:08;;;;;;;4.25;1.70;;;20.10;92.00;;;;;;5054717;28;20029;-77
2023/07/20 06:50:33;;;;;;;4.85;1.65;;;20.10;91.90;;;;;;5037325;28;20032;-77
2023/07/20 06:53:03;;;;;;;6.25;1.70;;;20.10;92.00;;;;;;5054616;28;20137;-78
2023/07/20 06:55:28;;;;;;;3.10;1.67;;;20.10;92.00;;;;;;5037422;28;20021;-76
2023/07/20 06:57:54;;;;;;;4.03;1.40;;;20.10;92.10;;;;;;5054837;28;20036;-77
2023/07/20 07:00:20;;;;;;;3.20;1.52;;;20.10;92.00;;;;;;5036749;28;20064;-77
2023/07/20 07:02:45;;;;;;;4.07;1.60;;;20.20;92.00;;;;;;5037131;28;20029;-82
2023/07/20 07:05:13;;;;;;;4.57;1.77;;;20.30;91.90;;;;;;5028949;28;20486;-77
2023/07/20 07:07:39;;;;;;;5.55;1.90;;;20.40;91.80;;;;;;5034657;28;20030;-77
2023/07/20 07:10:05;;;;;;;3.55;1.50;;;20.40;92.00;;;;;;5026098;28;20032;-77
2023/07/20 07:12:31;;;;;;;3.90;1.63;;;20.30;91.90;;;;;;5025719;28;20033;-77
2023/07/20 07:14:56;;;;;;;3.15;1.63;;;20.30;92.20;;;;;;5034594;28;20079;-77
2023/07/20 07:17:22;;;;;;;6.10;1.70;;;20.30;92.20;;;;;;5026511;28;20025;-77
2023/07/20 07:19:48;;;;;;;6.68;1.70;;;20.20;92.30;;;;;;5024336;28;20052;-77
2023/07/20 07:22:14;;;;;;;6.22;1.95;;;20.10;92.60;;;;;;5022330;28;20033;-76
2023/07/20 07:24:41;;;;;;;6.68;1.83;;;20.10;92.40;;;;;;5024486;28;20532;-77
2023/07/20 07:27:08;;;;;;;3.67;1.58;;;20.10;92.60;;;;;;5023406;28;20025;-77
2023/07/20 07:29:34;;;;;;;2.95;1.38;;;20.20;92.80;;;;;;5024841;28;20036;-77
2023/07/20 07:32:01;;;;;;;4.40;1.80;;;20.20;93.00;;;;;;5023825;28;20026;-78
2023/07/20 07:34:27;;;;;;;3.95;1.50;;;20.30;92.90;;;;;;5033729;28;20051;-77
2023/07/20 07:36:52;;;;;;;3.13;1.50;;;20.30;92.70;;;;;;5033405;28;20466;-77
2023/07/20 07:39:19;;;;;;;6.35;1.60;;;20.30;92.90;;;;;;5024458;28;20040;-76
2023/07/20 07:41:44;;;;;;;6.78;1.65;;;20.30;92.90;;;;;;5034081;28;20026;-76
2023/07/20 07:44:10;;;;;;;4.18;1.58;;;20.40;92.80;;;;;;5024129;28;20030;-76
2023/07/20 07:46:35;;;;;;;5.30;1.65;;;20.40;92.80;;;;;;5025546;28;20451;-76
2023/07/20 07:49:01;;;;;;;3.20;1.63;;;20.40;92.90;;;;;;5024912;28;20025;-78
2023/07/20 07:51:29;;;;;;;2.55;1.30;;;20.40;92.80;;;;;;5027499;28;20025;-76
2023/07/20 07:53:55;;;;;;;4.22;1.50;;;20.50;92.60;;;;;;5025407;28;20017;-76
2023/07/20 07:56:22;;;;;;;6.28;1.63;;;20.50;92.80;;;;;;5021798;28;20025;-77
2023/07/20 07:58:51;;;;;;;4.32;1.50;;;20.60;92.50;;;;;;5022475;28;20037;-76
2023/07/20 08:01:16;;;;;;;4.28;1.40;;;20.60;92.30;;;;;;5033074;28;20033;-77
2023/07/20 08:03:42;;;;;;;5.22;1.73;;;20.70;92.30;;;;;;5035866;28;20070;-77
2023/07/20 08:06:07;;;;;;;4.95;1.63;;;20.80;92.20;;;;;;5028793;28;20524;-77
2023/07/20 08:08:33;;;;;;;7.80;1.60;;;20.90;92.10;;;;;;5032725;28;20025;-77
2023/07/20 08:10:59;;;;;;;3.28;1.65;;;20.90;92.20;;;;;;5035910;28;20123;-77
2023/07/20 08:13:25;;;;;;;8.13;1.67;;;20.90;92.00;;;;;;5053527;28;20029;-77
2023/07/20 08:15:51;;;;;;;4.05;1.38;;;21.00;92.30;;;;;;5036136;28;20029;-77
2023/07/20 08:18:17;;;;;;;3.90;1.40;;;21.10;92.20;;;;;;5034856;28;20033;-78
2023/07/20 08:20:47;;;;;;;5.65;2.00;;;21.30;91.90;;;;;;5035594;28;20051;-76
2023/07/20 08:23:13;;;;;;;2.50;1.50;;;21.40;90.60;;;;;;5049885;28;20029;-76
2023/07/20 08:25:43;;;;;;;2.40;1.25;;;21.40;90.10;;;;;;5035160;28;20025;-77
2023/07/20 08:28:13;;;;;;;2.25;1.45;;;21.50;90.50;;;;;;5030971;28;20136;-76
2023/07/20 08:30:49;;;;;;;4.68;1.58;;;21.50;90.70;;;;;;5024810;28;20099;-77
2023/07/20 08:33:16;;;;;;;2.90;1.40;;;21.50;90.80;;;;;;5042548;28;20037;-77
2023/07/20 08:35:43;;;;;;;4.88;1.48;;;21.50;90.90;;;;;;5031994;28;20451;-77
2023/07/20 08:38:08;;;;;;;5.85;1.40;;;21.50;90.60;;;;;;5035019;28;20037;-77
2023/07/20 08:40:42;;;;;;;4.97;1.33;;;21.60;90.90;;;;;;5024382;28;20119;-77
2023/07/20 08:43:10;;;;;;;6.30;1.38;;;21.70;90.00;;;;;;5025602;28;20083;-76
2023/07/20 08:45:37;;;;;;;4.05;1.00;;;21.90;89.80;;;;;;5029013;28;20036;-77
2023/07/20 08:48:05;;;;;;;1.73;1.00;;;22.00;88.50;;;;;;5024929;28;20033;-78
2023/07/20 08:50:32;;;;;;;3.80;1.27;;;22.10;88.00;;;;;;5031095;28;20056;-78
2023/07/20 08:52:59;;;;;;;3.80;1.20;;;22.00;88.00;;;;;;5053067;28;20055;-76
2023/07/20 08:55:26;;;;;;;2.58;1.27;;;21.90;88.40;;;;;;5034755;28;20033;-78
2023/07/20 08:57:55;;;;;;;2.45;1.27;;;21.90;88.90;;;;;;5028422;28;20033;-77
2023/07/20 09:00:22;;;;;;;2.50;1.27;;;21.90;87.70;;;;;;5052477;28;20029;-78
2023/07/20 09:02:51;;;;;;;1.10;0.77;;;21.90;88.30;;;;;;5023226;28;20021;-77
2023/07/20 09:05:20;;;;;;;2.88;1.30;;;22.00;87.40;;;;;;5025184;28;20058;-77
2023/07/20 09:07:46;;;;;;;2.33;1.00;;;22.10;87.70;;;;;;5048458;28;20030;-78
2023/07/20 09:10:12;;;;;;;2.47;1.08;;;22.20;86.10;;;;;;5020166;28;20025;-78
2023/07/20 09:12:40;;;;;;;4.97;1.13;;;22.40;85.00;;;;;;5029184;28;20028;-79
2023/07/20 09:15:06;;;;;;;2.72;1.10;;;22.50;84.40;;;;;;5030104;28;20029;-78
2023/07/20 09:17:32;;;;;;;2.95;1.00;;;22.60;84.70;;;;;;5034605;28;20056;-78
2023/07/20 09:19:58;;;;;;;2.55;1.00;;;22.70;82.90;;;;;;5029713;28;20465;-79
2023/07/20 09:22:30;;;;;;;3.97;1.00;;;22.60;82.20;;;;;;5051476;28;20021;-77
2023/07/20 09:24:57;;;;;;;1.42;0.98;;;22.70;82.00;;;;;;5033348;28;20079;-78
2023/07/20 09:27:29;;;;;;;6.40;1.15;;;22.70;82.80;;;;;;5033297;28;20029;-78
2023/07/20 09:29:56;;;;;;;3.08;0.90;;;22.80;81.60;;;;;;5051387;28;20040;-76
2023/07/20 09:32:22;;;;;;;4.38;2.05;;;22.70;82.00;;;;;;5050943;28;20534;-77
2023/07/20 09:34:50;;;;;;;2.97;1.30;;;22.60;82.20;;;;;;5051788;28;20037;-77
2023/07/20 09:37:24;;;;;;;4.13;1.38;;;22.60;82.70;;;;;;5023698;28;20088;-80
2023/07/20 09:39:53;;;;;;;1.08;0.90;;;22.50;82.10;;;;;;5027216;28;20075;-79
2023/07/20 09:42:18;;;;;;;6.68;1.58;;;22.50;82.80;;;;;;5050083;28;20366;-78
2023/07/20 09:44:44;;;;;;;1.50;0.88;;;22.50;81.30;;;;;;5052196;28;20024;-77
2023/07/20 09:47:10;;;;;;;2.30;0.93;;;22.60;80.80;;;;;;5030108;28;20441;-77
2023/07/20 09:49:40;;;;;;;3.15;1.13;;;22.70;81.10;;;;;;5047646;28;20071;-79
2023/07/20 09:52:09;;;;;;;4.18;1.02;;;22.70;80.10;;;;;;5026676;28;20436;-77
2023/07/20 09:54:38;;;;;;;1.50;0.85;;;22.70;80.50;;;;;;5020513;28;20036;-76
2023/07/20 09:57:06;;;;;;;2.83;1.10;;;22.70;79.40;;;;;;5043863;28;20025;-77
2023/07/20 09:59:32;;;;;;;1.92;0.90;;;22.80;80.00;;;;;;5023337;28;20034;-78
2023/07/20 10:02:00;;;;;;;2.65;0.90;;;22.90;80.10;;;;;;5024917;28;20029;-76
2023/07/20 10:04:28;;;;;;;2.15;0.93;;;23.10;79.00;;;;;;5051051;28;20592;-76
2023/07/20 10:06:56;;;;;;;3.78;0.90;;;23.20;78.20;;;;;;5051703;28;20108;-76
2023/07/20 10:09:24;;;;;;;1.00;0.65;;;23.30;78.20;;;;;;5051183;28;20029;-77
2023/07/20 10:11:53;;;;;;;2.38;0.82;;;23.30;77.20;;;;;;5034013;28;20488;-78
2023/07/20 10:14:20;;;;;;;1.80;0.95;;;23.40;77.00;;;;;;5028562;28;20026;-77
2023/07/20 10:16:57;;;;;;;2.63;1.05;;;23.40;78.30;;;;;;5025329;28;20033;-77
2023/07/20 10:19:44;;;;;;;3.35;1.02;;;23.30;77.50;;;;;;5037076;28;20037;-77
2023/07/20 10:22:17;;;;;;;2.20;0.98;;;23.30;76.50;;;;;;5036310;28;20057;-77
2023/07/20 10:24:46;;;;;;;1.67;0.80;;;23.50;76.10;;;;;;5037227;28;20029;-77
2023/07/20 10:27:13;;;;;;;2.20;1.20;;;23.60;76.60;;;;;;5031293;28;20032;-79
2023/07/20 10:29:40;;;;;;;1.77;0.98;;;23.60;76.30;;;;;;5030791;28;20107;-78
2023/07/20 10:32:06;;;;;;;2.55;0.73;;;23.60;76.80;;;;;;5034795;28;20104;-79
2023/07/20 10:34:32;;;;;;;2.90;1.20;;;23.70;75.60;;;;;;5050795;28;20052;-80
2023/07/20 10:36:58;;;;;;;1.88;0.80;;;23.80;75.00;;;;;;5037619;28;20059;-79
2023/07/20 10:39:27;;;;;;;4.38;0.98;;;23.80;75.20;;;;;;5027553;28;20034;-79
2023/07/20 10:42:10;;;;;;;1.58;0.77;;;23.90;73.70;;;;;;5053011;28;20457;-76
2023/07/20 10:44:39;;;;;;;3.88;1.02;;;23.80;73.00;;;;;;5052470;28;20079;-76
2023/07/20 10:47:12;;;;;;;2.30;0.90;;;23.80;73.80;;;;;;5030734;28;20022;-77
2023/07/20 10:50:00;;;;;;;12.77;0.95;;;23.80;73.50;;;;;;5033759;28;20025;-77
2023/07/20 10:52:26;;;;;;;1.58;0.77;;;24.00;72.70;;;;;;5052790;28;20029;-76
2023/07/20 10:54:52;;;;;;;2.80;0.93;;;24.10;73.00;;;;;;5036936;28;20032;-78
2023/07/20 10:57:31;;;;;;;2.53;1.00;;;24.20;73.70;;;;;;5032974;28;20463;-76
2023/07/20 11:00:14;;;;;;;1.83;0.70;;;24.20;72.20;;;;;;5053725;28;20044;-78
2023/07/20 11:02:52;;;;;;;1.20;0.60;;;24.20;71.40;;;;;;5054334;28;20062;-77
2023/07/20 11:05:47;;;;;;;3.28;0.88;;;24.20;71.30;;;;;;5023246;28;20057;-75
2023/07/20 11:08:32;;;;;;;3.55;1.17;;;24.30;71.20;;;;;;5021768;28;20048;-78
2023/07/20 11:11:21;;;;;;;1.27;0.77;;;24.30;70.60;;;;;;5053360;28;20017;-78
2023/07/20 11:13:58;;;;;;;1.40;0.68;;;24.30;71.00;;;;;;5026485;28;20461;-78
2023/07/20 11:16:53;;;;;;;2.25;0.93;;;24.30;70.20;;;;;;5030129;28;20029;-79
2023/07/20 11:19:25;;;;;;;1.77;0.75;;;24.20;70.70;;;;;;5043157;28;20040;-78
2023/07/20 11:21:58;;;;;;;1.70;0.95;;;24.20;71.40;;;;;;5055224;28;20081;-76
2023/07/20 11:24:24;;;;;;;4.38;2.03;;;24.10;71.60;;;;;;5054574;28;20029;-76
2023/07/20 11:26:53;;;;;;;2.67;1.40;;;24.10;71.80;;;;;;5054922;28;20087;-78
2023/07/20 11:29:24;;;;;;;2.35;0.93;;;24.10;71.00;;;;;;5035725;28;20033;-75
2023/07/20 11:31:50;;;;;;;1.52;0.90;;;24.10;70.40;;;;;;5054820;28;20027;-75
2023/07/20 11:34:18;;;;;;;1.30;0.88;;;24.20;70.90;;;;;;5044583;28;20037;-76
2023/07/20 11:36:45;;;;;;;1.33;0.80;;;24.20;69.90;;;;;;5036388;28;20029;-76
2023/07/20 11:39:22;;;;;;;1.65;0.68;;;24.20;70.30;;;;;;5036692;28;20095;-78
2023/07/20 11:41:49;;;;;;;1.67;0.90;;;24.30;70.30;;;;;;5037494;28;20111;-77
2023/07/20 11:44:26;;;;;;;1.17;0.70;;;24.20;70.50;;;;;;5040464;28;20053;-75
2023/07/20 11:47:03;;;;;;;0.98;0.80;;;24.10;70.30;;;;;;5047227;28;20028;-75
2023/07/20 11:49:29;;;;;;;1.85;0.90;;;24.00;70.70;;;;;;5035634;28;20033;-78
2023/07/20 11:51:56;;;;;;;2.33;0.80;;;23.90;70.70;;;;;;5036447;28;20026;-78
2023/07/20 11:54:22;;;;;;;1.65;0.75;;;23.90;70.40;;;;;;5036466;28;20033;-76
2023/07/20 11:56:48;;;;;;;0.93;0.60;;;24.00;70.90;;;;;;5054684;28;20103;-77
2023/07/20 11:59:14;;;;;;;2.33;0.73;;;24.10;70.70;;;;;;5035317;28;20488;-77
2023/07/20 12:01:39;;;;;;;2.15;0.88;;;24.20;72.20;;;;;;5036993;28;20025;-75
2023/07/20 12:04:06;;;;;;;1.65;0.75;;;24.30;69.70;;;;;;5058377;28;20053;-76
2023/07/20 12:06:32;;;;;;;1.35;0.70;;;24.30;69.10;;;;;;5036173;28;20032;-77
2023/07/20 12:08:59;;;;;;;0.93;0.60;;;24.50;69.60;;;;;;5059538;28;20025;-76
2023/07/20 12:11:34;;;;;;;0.60;0.60;;;24.60;69.10;;;;;;5055901;28;20060;-78
2023/07/20 12:14:00;;;;;;;1.55;0.68;;;24.60;68.20;;;;;;5056562;28;20028;-77
2023/07/20 12:16:30;;;;;;;2.35;0.68;;;24.60;67.80;;;;;;5055563;28;20032;-76
2023/07/20 12:19:10;;;;;;;1.33;0.75;;;24.70;67.80;;;;;;5073463;28;20032;-75
2023/07/20 12:21:37;;;;;;;3.20;0.80;;;24.70;67.00;;;;;;5073695;28;20038;-77
2023/07/20 12:24:04;;;;;;;1.50;0.80;;;24.70;66.80;;;;;;5073883;28;20035;-77
2023/07/20 12:26:31;;;;;;;0.80;0.60;;;24.80;66.60;;;;;;5052138;28;20025;-77
2023/07/20 12:28:57;;;;;;;3.30;0.80;;;24.80;66.50;;;;;;5060901;28;20025;-78
2023/07/20 12:31:24;;;;;;;1.23;0.80;;;24.80;66.00;;;;;;5038366;28;20362;-77
2023/07/20 12:33:50;;;;;;;1.48;1.00;;;24.90;65.80;;;;;;5066578;28;20055;-77
2023/07/20 12:36:16;;;;;;;1.70;0.60;;;25.00;65.50;;;;;;5036514;28;20085;-79
2023/07/20 12:38:42;;;;;;;2.05;0.80;;;25.20;66.00;;;;;;5016171;28;20038;-77
2023/07/20 12:41:09;;;;;;;6.28;0.65;;;25.20;63.70;;;;;;5044369;28;20029;-75
2023/07/20 12:43:35;;;;;;;2.08;0.90;;;25.40;63.40;;;;;;5027140;28;20581;-78
2023/07/20 12:46:01;;;;;;;2.78;0.68;;;25.60;63.10;;;;;;5053690;28;20021;-77
2023/07/20 12:48:26;;;;;;;1.98;0.70;;;25.80;62.60;;;;;;5035157;28;20040;-75
2023/07/20 12:50:52;;;;;;;0.90;0.60;;;25.90;62.10;;;;;;5053804;28;20036;-78